createdAt,value
2023-04-18T00:00:37.725Z,790.00
2023-04-18T00:01:37.791Z,792.00
2023-04-18T00:02:37.990Z,793.00
2023-04-18T00:03:38.144Z,793.00
2023-04-18T00:04:37.970Z,795.00
2023-04-18T00:05:37.964Z,793.00
2023-04-18T00:06:37.964Z,792.00
2023-04-18T00:07:38.034Z,788.00
2023-04-18T00:08:38.073Z,790.00
2023-04-18T00:09:38.157Z,788.00
2023-04-18T00:10:38.158Z,790.00
2023-04-18T00:11:38.190Z,787.00
2023-04-18T00:12:38.196Z,785.00
2023-04-18T00:13:38.238Z,783.00
2023-04-18T00:14:38.289Z,782.00
2023-04-18T00:15:38.330Z,785.00
2023-04-18T00:16:38.443Z,782.00
2023-04-18T00:17:38.538Z,780.00
2023-04-18T00:18:38.484Z,778.00
2023-04-18T00:19:38.563Z,776.00
2023-04-18T00:20:38.582Z,775.00
2023-04-18T00:21:38.617Z,772.00
2023-04-18T00:22:38.660Z,771.00
2023-04-18T00:23:38.715Z,771.00
2023-04-18T00:24:38.767Z,770.00
2023-04-18T00:25:38.807Z,769.00
2023-04-18T00:26:38.828Z,769.00
2023-04-18T00:27:38.878Z,771.00
2023-04-18T00:28:38.948Z,770.00
2023-04-18T00:29:38.987Z,769.00
2023-04-18T00:30:39.041Z,769.00
2023-04-18T00:31:39.027Z,771.00
2023-04-18T00:32:39.127Z,769.00
2023-04-18T00:33:39.128Z,767.00
2023-04-18T00:34:39.160Z,771.00
2023-04-18T00:35:39.229Z,773.00
2023-04-18T00:36:39.393Z,774.00
2023-04-18T00:37:39.327Z,775.00
2023-04-18T00:38:39.385Z,778.00
2023-04-18T00:39:39.436Z,776.00
2023-04-18T00:40:39.474Z,775.00
2023-04-18T00:41:39.491Z,778.00
2023-04-18T00:42:39.556Z,775.00
2023-04-18T00:43:39.623Z,774.00
2023-04-18T00:44:39.643Z,776.00
2023-04-18T00:45:39.673Z,780.00
2023-04-18T00:46:39.739Z,780.00
2023-04-18T00:47:39.736Z,779.00
2023-04-18T00:48:39.784Z,777.00
2023-04-18T00:49:39.824Z,774.00
2023-04-18T00:50:39.862Z,775.00
2023-04-18T00:51:39.932Z,774.00
2023-04-18T00:52:40.125Z,768.00
2023-04-18T00:53:40.053Z,766.00
2023-04-18T00:54:40.137Z,763.00
2023-04-18T00:55:40.209Z,766.00
2023-04-18T00:56:40.253Z,763.00
2023-04-18T00:57:40.305Z,762.00
2023-04-18T00:58:40.362Z,762.00
2023-04-18T00:59:40.418Z,762.00
2023-04-18T01:00:40.478Z,764.00
2023-04-18T01:01:40.541Z,763.00
2023-04-18T01:02:40.614Z,765.00
2023-04-18T01:03:40.767Z,765.00
2023-04-18T01:04:40.663Z,764.00
2023-04-18T01:05:40.623Z,765.00
2023-04-18T01:06:40.690Z,765.00
2023-04-18T01:07:40.720Z,763.00
2023-04-18T01:08:40.711Z,764.00
2023-04-18T01:09:40.766Z,765.00
2023-04-18T01:10:40.777Z,760.00
2023-04-18T01:11:40.813Z,755.00
2023-04-18T01:12:40.849Z,757.00
2023-04-18T01:13:40.880Z,757.00
2023-04-18T01:14:40.925Z,756.00
2023-04-18T01:15:41.036Z,755.00
2023-04-18T01:16:41.060Z,754.00
2023-04-18T01:17:41.159Z,755.00
2023-04-18T01:18:41.174Z,755.00
2023-04-18T01:19:41.223Z,756.00
2023-04-18T01:20:41.280Z,755.00
2023-04-18T01:21:41.311Z,755.00
2023-04-18T01:22:41.354Z,758.00
2023-04-18T01:23:41.418Z,759.00
2023-04-18T01:24:41.470Z,758.00
2023-04-18T01:25:41.521Z,759.00
2023-04-18T01:26:41.584Z,758.00
2023-04-18T01:27:41.639Z,755.00
2023-04-18T01:28:41.692Z,757.00
2023-04-18T01:29:41.759Z,756.00
2023-04-18T01:30:41.849Z,757.00
2023-04-18T01:31:42.002Z,758.00
2023-04-18T01:32:42.033Z,757.00
2023-04-18T01:33:42.011Z,757.00
2023-04-18T01:34:42.076Z,755.00
2023-04-18T01:35:42.110Z,756.00
2023-04-18T01:36:42.122Z,753.00
2023-04-18T01:37:42.150Z,753.00
2023-04-18T01:38:42.169Z,757.00
2023-04-18T01:39:42.200Z,756.00
2023-04-18T01:40:42.238Z,754.00
2023-04-18T01:41:42.271Z,755.00
2023-04-18T01:42:42.306Z,754.00
2023-04-18T01:43:42.332Z,755.00
2023-04-18T01:44:42.354Z,755.00
2023-04-18T01:45:42.392Z,756.00
2023-04-18T01:46:42.527Z,754.00
2023-04-18T01:47:42.529Z,753.00
2023-04-18T01:48:42.551Z,751.00
2023-04-18T01:49:42.584Z,749.00
2023-04-18T01:50:42.618Z,747.00
2023-04-18T01:51:42.665Z,747.00
2023-04-18T01:52:42.743Z,749.00
2023-04-18T01:53:42.756Z,748.00
2023-04-18T01:54:42.820Z,750.00
2023-04-18T01:55:42.870Z,752.00
2023-04-18T01:56:42.933Z,747.00
2023-04-18T01:57:42.974Z,739.00
2023-04-18T01:58:43.025Z,741.00
2023-04-18T01:59:43.071Z,740.00
2023-04-18T02:00:43.141Z,742.00
2023-04-18T02:01:43.247Z,743.00
2023-04-18T02:02:43.437Z,743.00
2023-04-18T02:03:43.554Z,741.00
2023-04-18T02:04:43.396Z,743.00
2023-04-18T02:05:43.427Z,745.00
2023-04-18T02:06:43.468Z,746.00
2023-04-18T02:07:43.495Z,748.00
2023-04-18T02:08:43.525Z,748.00
2023-04-18T02:09:43.618Z,748.00
2023-04-18T02:10:43.644Z,744.00
2023-04-18T02:11:43.697Z,744.00
2023-04-18T02:12:43.755Z,743.00
2023-04-18T02:13:43.829Z,742.00
2023-04-18T02:14:43.892Z,744.00
2023-04-18T02:15:43.979Z,742.00
2023-04-18T02:16:44.084Z,738.00
2023-04-18T02:17:44.181Z,738.00
2023-04-18T02:18:44.160Z,738.00
2023-04-18T02:19:44.194Z,741.00
2023-04-18T02:20:44.232Z,738.00
2023-04-18T02:21:44.270Z,736.00
2023-04-18T02:22:44.335Z,735.00
2023-04-18T02:23:44.390Z,734.00
2023-04-18T02:24:44.436Z,736.00
2023-04-18T02:25:44.476Z,738.00
2023-04-18T02:26:44.523Z,739.00
2023-04-18T02:27:44.569Z,737.00
2023-04-18T02:28:44.688Z,735.00
2023-04-18T02:29:44.663Z,736.00
2023-04-18T02:30:44.742Z,736.00
2023-04-18T02:31:44.782Z,736.00
2023-04-18T02:32:44.818Z,736.00
2023-04-18T02:33:44.835Z,740.00
2023-04-18T02:34:44.876Z,741.00
2023-04-18T02:35:44.919Z,741.00
2023-04-18T02:36:44.961Z,739.00
2023-04-18T02:37:45.001Z,738.00
2023-04-18T02:38:45.025Z,735.00
2023-04-18T02:39:45.067Z,735.00
2023-04-18T02:40:45.108Z,736.00
2023-04-18T02:41:45.178Z,736.00
2023-04-18T02:42:45.224Z,735.00
2023-04-18T02:43:45.275Z,734.00
2023-04-18T02:44:45.304Z,734.00
2023-04-18T02:45:45.344Z,734.00
2023-04-18T02:46:45.364Z,736.00
2023-04-18T02:47:54.434Z,738.00
2023-04-18T02:48:46.374Z,737.00
2023-04-18T02:49:45.379Z,738.00
2023-04-18T02:50:45.376Z,738.00
2023-04-18T02:51:45.381Z,741.00
2023-04-18T02:52:45.453Z,745.00
2023-04-18T02:53:45.397Z,739.00
2023-04-18T02:54:45.403Z,740.00
2023-04-18T02:55:45.420Z,739.00
2023-04-18T02:56:45.425Z,737.00
2023-04-18T02:57:45.443Z,736.00
2023-04-18T02:58:45.431Z,735.00
2023-04-18T02:59:45.448Z,734.00
2023-04-18T03:00:45.469Z,735.00
2023-04-18T03:01:45.695Z,733.00
2023-04-18T03:02:45.622Z,732.00
2023-04-18T03:03:45.618Z,730.00
2023-04-18T03:04:45.707Z,731.00
2023-04-18T03:05:45.717Z,733.00
2023-04-18T03:06:45.783Z,735.00
2023-04-18T03:07:45.825Z,733.00
2023-04-18T03:08:45.884Z,733.00
2023-04-18T03:09:45.943Z,733.00
2023-04-18T03:10:46.001Z,728.00
2023-04-18T03:11:46.073Z,728.00
2023-04-18T03:12:46.142Z,733.00
2023-04-18T03:13:46.213Z,729.00
2023-04-18T03:14:46.250Z,728.00
2023-04-18T03:15:46.345Z,726.00
2023-04-18T03:16:46.433Z,723.00
2023-04-18T03:17:46.433Z,727.00
2023-04-18T03:18:46.482Z,729.00
2023-04-18T03:19:46.579Z,730.00
2023-04-18T03:20:46.572Z,732.00
2023-04-18T03:21:46.641Z,731.00
2023-04-18T03:22:46.676Z,730.00
2023-04-18T03:23:46.718Z,733.00
2023-04-18T03:24:46.784Z,731.00
2023-04-18T03:25:46.848Z,731.00
2023-04-18T03:26:46.928Z,731.00
2023-04-18T03:27:47.007Z,731.00
2023-04-18T03:28:47.076Z,729.00
2023-04-18T03:29:47.152Z,730.00
2023-04-18T03:30:47.234Z,733.00
2023-04-18T03:31:47.361Z,730.00
2023-04-18T03:32:47.407Z,728.00
2023-04-18T03:33:47.460Z,726.00
2023-04-18T03:34:47.531Z,729.00
2023-04-18T03:35:47.607Z,727.00
2023-04-18T03:36:48.321Z,727.00
2023-04-18T03:37:47.748Z,723.00
2023-04-18T03:38:47.855Z,727.00
2023-04-18T03:39:47.887Z,729.00
2023-04-18T03:40:47.962Z,730.00
2023-04-18T03:41:48.031Z,731.00
2023-04-18T03:42:48.125Z,729.00
2023-04-18T03:43:48.174Z,729.00
2023-04-18T03:44:48.254Z,727.00
2023-04-18T03:45:48.380Z,728.00
2023-04-18T03:46:48.393Z,729.00
2023-04-18T03:47:48.556Z,728.00
2023-04-18T03:48:48.525Z,728.00
2023-04-18T03:49:48.590Z,727.00
2023-04-18T03:50:48.672Z,728.00
2023-04-18T03:51:48.735Z,728.00
2023-04-18T03:52:48.805Z,728.00
2023-04-18T03:53:48.842Z,725.00
2023-04-18T03:54:48.902Z,722.00
2023-04-18T03:55:48.956Z,723.00
2023-04-18T03:56:49.005Z,721.00
2023-04-18T03:57:49.071Z,717.00
2023-04-18T03:58:49.112Z,718.00
2023-04-18T03:59:49.195Z,717.00
2023-04-18T04:00:49.235Z,716.00
2023-04-18T04:01:49.354Z,715.00
2023-04-18T04:02:49.443Z,718.00
2023-04-18T04:03:49.624Z,717.00
2023-04-18T04:04:49.590Z,718.00
2023-04-18T04:05:49.605Z,718.00
2023-04-18T04:06:49.681Z,719.00
2023-04-18T04:07:49.748Z,717.00
2023-04-18T04:08:49.821Z,716.00
2023-04-18T04:09:49.887Z,720.00
2023-04-18T04:10:50.890Z,718.00
2023-04-18T04:11:50.026Z,718.00
2023-04-18T04:12:50.077Z,714.00
2023-04-18T04:13:50.149Z,716.00
2023-04-18T04:14:50.366Z,715.00
2023-04-18T04:15:50.302Z,716.00
2023-04-18T04:16:50.401Z,714.00
2023-04-18T04:17:50.503Z,716.00
2023-04-18T04:18:50.502Z,714.00
2023-04-18T04:19:50.574Z,712.00
2023-04-18T04:20:50.637Z,714.00
2023-04-18T04:21:50.722Z,714.00
2023-04-18T04:22:50.795Z,720.00
2023-04-18T04:23:50.845Z,720.00
2023-04-18T04:24:50.916Z,717.00
2023-04-18T04:25:50.971Z,718.00
2023-04-18T04:26:51.052Z,717.00
2023-04-18T04:27:51.129Z,716.00
2023-04-18T04:28:51.212Z,717.00
2023-04-18T04:29:51.281Z,719.00
2023-04-18T04:30:51.362Z,718.00
2023-04-18T04:31:51.461Z,716.00
2023-04-18T04:32:51.572Z,712.00
2023-04-18T04:33:51.573Z,711.00
2023-04-18T04:34:51.632Z,713.00
2023-04-18T04:35:51.711Z,717.00
2023-04-18T04:36:51.770Z,717.00
2023-04-18T04:37:51.839Z,718.00
2023-04-18T04:38:51.922Z,716.00
2023-04-18T04:39:51.982Z,718.00
2023-04-18T04:40:52.064Z,718.00
2023-04-18T04:41:52.146Z,717.00
2023-04-18T04:42:52.199Z,717.00
2023-04-18T04:43:52.280Z,717.00
2023-04-18T04:44:52.365Z,716.00
2023-04-18T04:45:52.451Z,717.00
2023-04-18T04:46:52.490Z,715.00
2023-04-18T04:47:52.613Z,716.00
2023-04-18T04:48:53.397Z,715.00
2023-04-18T04:49:52.705Z,716.00
2023-04-18T04:50:52.790Z,714.00
2023-04-18T04:51:52.844Z,714.00
2023-04-18T04:52:52.925Z,714.00
2023-04-18T04:53:52.987Z,717.00
2023-04-18T04:54:53.066Z,724.00
2023-04-18T04:55:53.144Z,724.00
2023-04-18T04:56:53.214Z,722.00
2023-04-18T04:57:53.288Z,718.00
2023-04-18T04:58:53.349Z,720.00
2023-04-18T04:59:53.443Z,717.00
2023-04-18T05:00:53.547Z,716.00
2023-04-18T05:01:53.651Z,717.00
2023-04-18T05:02:53.805Z,715.00
2023-04-18T05:03:53.892Z,716.00
2023-04-18T05:04:53.801Z,717.00
2023-04-18T05:05:53.882Z,719.00
2023-04-18T05:06:53.952Z,719.00
2023-04-18T05:07:54.029Z,718.00
2023-04-18T05:08:54.204Z,717.00
2023-04-18T05:09:54.173Z,718.00
2023-04-18T05:10:54.252Z,718.00
2023-04-18T05:11:54.319Z,719.00
2023-04-18T05:12:54.425Z,718.00
2023-04-18T05:13:54.482Z,716.00
2023-04-18T05:14:54.548Z,718.00
2023-04-18T05:15:54.627Z,720.00
2023-04-18T05:16:54.711Z,760.00
2023-04-18T05:17:54.898Z,765.00
2023-04-18T05:18:54.859Z,772.00
2023-04-18T05:19:54.934Z,784.00
2023-04-18T05:20:55.025Z,794.00
2023-04-18T05:21:55.063Z,803.00
2023-04-18T05:22:55.131Z,819.00
2023-04-18T05:23:55.197Z,835.00
2023-04-18T05:24:55.243Z,879.00
2023-04-18T05:25:55.300Z,890.00
2023-04-18T05:26:55.892Z,893.00
2023-04-18T05:27:55.408Z,896.00
2023-04-18T05:28:55.460Z,903.00
2023-04-18T05:29:55.521Z,925.00
2023-04-18T05:30:55.625Z,935.00
2023-04-18T05:31:55.665Z,943.00
2023-04-18T05:32:55.758Z,948.00
2023-04-18T05:33:56.398Z,938.00
2023-04-18T05:34:55.829Z,910.00
2023-04-18T05:35:55.900Z,910.00
2023-04-18T05:36:55.959Z,932.00
2023-04-18T05:37:56.011Z,938.00
2023-04-18T05:38:56.078Z,930.00
2023-04-18T05:39:56.614Z,927.00
2023-04-18T05:40:56.249Z,925.00
2023-04-18T05:41:56.269Z,916.00
2023-04-18T05:42:56.348Z,914.00
2023-04-18T05:44:04.873Z,911.00
2023-04-18T05:44:57.411Z,909.00
2023-04-18T05:45:57.746Z,905.00
2023-04-18T05:46:56.431Z,904.00
2023-04-18T05:47:56.495Z,899.00
2023-04-18T05:48:56.421Z,894.00
2023-04-18T05:49:56.421Z,889.00
2023-04-18T05:50:56.436Z,887.00
2023-04-18T05:51:56.445Z,883.00
2023-04-18T05:52:56.468Z,879.00
2023-04-18T05:53:56.535Z,877.00
2023-04-18T05:54:56.596Z,875.00
2023-04-18T05:55:56.666Z,874.00
2023-04-18T05:56:56.737Z,874.00
2023-04-18T05:57:56.814Z,881.00
2023-04-18T05:58:56.866Z,878.00
2023-04-18T05:59:56.935Z,959.00
2023-04-18T06:00:57.025Z,945.00
2023-04-18T06:01:57.122Z,933.00
2023-04-18T06:02:57.983Z,923.00
2023-04-18T06:03:57.453Z,916.00
2023-04-18T06:04:57.392Z,900.00
2023-04-18T06:05:57.534Z,898.00
2023-04-18T06:06:57.441Z,895.00
2023-04-18T06:07:57.508Z,887.00
2023-04-18T06:08:57.576Z,886.00
2023-04-18T06:09:57.654Z,883.00
2023-04-18T06:10:57.713Z,884.00
2023-04-18T06:11:57.796Z,883.00
2023-04-18T06:12:57.854Z,881.00
2023-04-18T06:13:57.910Z,880.00
2023-04-18T06:14:57.973Z,880.00
2023-04-18T06:15:58.113Z,878.00
2023-04-18T06:16:58.113Z,879.00
2023-04-18T06:17:58.235Z,878.00
2023-04-18T06:19:00.952Z,880.00
2023-04-18T06:19:58.269Z,878.00
2023-04-18T06:20:58.265Z,877.00
2023-04-18T06:21:58.307Z,876.00
2023-04-18T06:22:58.895Z,877.00
2023-04-18T06:23:59.433Z,929.00
2023-04-18T06:24:59.389Z,955.00
2023-04-18T06:25:58.526Z,972.00
2023-04-18T06:26:59.400Z,1014.00
2023-04-18T06:27:58.616Z,1019.00
2023-04-18T06:28:58.750Z,1013.00
2023-04-18T06:29:58.800Z,1003.00
2023-04-18T06:30:58.824Z,1018.00
2023-04-18T06:31:58.938Z,1038.00
2023-04-18T06:32:59.026Z,1043.00
2023-04-18T06:33:59.024Z,1050.00
2023-04-18T06:34:59.073Z,1056.00
2023-04-18T06:35:59.144Z,1059.00
2023-04-18T06:36:59.178Z,1058.00
2023-04-18T06:37:59.314Z,1058.00
2023-04-18T06:38:59.305Z,1054.00
2023-04-18T06:39:59.373Z,1050.00
2023-04-18T06:40:59.421Z,1027.00
2023-04-18T06:41:59.472Z,1026.00
2023-04-18T06:42:59.540Z,1023.00
2023-04-18T06:44:04.058Z,1021.00
2023-04-18T06:45:00.695Z,1022.00
2023-04-18T06:45:59.646Z,1025.00
2023-04-18T06:46:59.607Z,1028.00
2023-04-18T06:47:59.664Z,1032.00
2023-04-18T06:48:59.625Z,1029.00
2023-04-18T06:49:59.642Z,1033.00
2023-04-18T06:50:59.634Z,1034.00
2023-04-18T06:51:59.647Z,1033.00
2023-04-18T06:52:59.641Z,1035.00
2023-04-18T06:53:59.693Z,1034.00
2023-04-18T06:54:59.742Z,1027.00
2023-04-18T06:55:59.797Z,1026.00
2023-04-18T06:56:59.858Z,1025.00
2023-04-18T06:57:59.920Z,1024.00
2023-04-18T06:58:59.999Z,1023.00
2023-04-18T07:00:00.068Z,1023.00
2023-04-18T07:01:00.185Z,1019.00
2023-04-18T07:02:00.250Z,1017.00
2023-04-18T07:03:00.426Z,1014.00
2023-04-18T07:04:00.485Z,1015.00
2023-04-18T07:05:00.395Z,1014.00
2023-04-18T07:06:00.473Z,1013.00
2023-04-18T07:07:00.526Z,1011.00
2023-04-18T07:08:00.595Z,1005.00
2023-04-18T07:09:00.663Z,997.00
2023-04-18T07:10:00.733Z,992.00
2023-04-18T07:11:00.793Z,986.00
2023-04-18T07:12:00.877Z,985.00
2023-04-18T07:13:00.931Z,984.00
2023-04-18T07:14:01.017Z,984.00
2023-04-18T07:15:01.895Z,996.00
2023-04-18T07:16:01.155Z,1012.00
2023-04-18T07:17:02.899Z,1046.00
2023-04-18T07:18:02.695Z,1073.00
2023-04-18T07:19:01.455Z,1202.00
2023-04-18T07:20:01.421Z,1244.00
2023-04-18T07:21:01.893Z,1393.00
2023-04-18T07:22:01.419Z,1366.00
2023-04-18T07:23:01.495Z,1333.00
2023-04-18T07:24:02.311Z,1315.00
2023-04-18T07:25:02.439Z,1302.00
2023-04-18T07:26:01.608Z,1341.00
2023-04-18T07:27:02.456Z,1169.00
2023-04-18T07:28:04.508Z,1111.00
2023-04-18T07:29:01.776Z,978.00
2023-04-18T07:30:02.750Z,967.00
2023-04-18T07:31:02.336Z,921.00
2023-04-18T07:32:01.764Z,901.00
2023-04-18T07:33:03.407Z,942.00
2023-04-18T07:34:01.739Z,1008.00
2023-04-18T07:35:01.755Z,1053.00
2023-04-18T07:36:01.768Z,1083.00
2023-04-18T07:37:01.747Z,1081.00
2023-04-18T07:38:01.758Z,1080.00
2023-04-18T07:39:01.766Z,1082.00
2023-04-18T07:40:01.797Z,1080.00
2023-04-18T07:41:01.890Z,1070.00
2023-04-18T07:42:01.902Z,1059.00
2023-04-18T07:43:01.965Z,1040.00
2023-04-18T07:44:02.075Z,1033.00
2023-04-18T07:45:02.177Z,1030.00
2023-04-18T07:46:02.203Z,1030.00
2023-04-18T07:47:03.001Z,1022.00
2023-04-18T07:48:02.354Z,1024.00
2023-04-18T07:49:02.368Z,1023.00
2023-04-18T07:50:02.940Z,1022.00
2023-04-18T07:51:03.360Z,1017.00
2023-04-18T07:52:02.362Z,1009.00
2023-04-18T07:53:02.395Z,1007.00
2023-04-18T07:54:02.384Z,1002.00
2023-04-18T07:55:03.401Z,1001.00
2023-04-18T07:56:02.375Z,999.00
2023-04-18T07:57:03.324Z,1000.00
2023-04-18T07:58:02.373Z,1003.00
2023-04-18T07:59:02.891Z,1002.00
2023-04-18T08:00:04.189Z,1001.00
2023-04-18T08:01:02.922Z,1001.00
2023-04-18T08:02:02.437Z,1003.00
2023-04-18T08:03:02.540Z,1004.00
2023-04-18T08:04:02.622Z,1004.00
2023-04-18T08:05:02.900Z,1009.00
2023-04-18T08:06:02.476Z,1007.00
2023-04-18T08:07:02.434Z,1007.00
2023-04-18T08:08:06.362Z,1005.00
2023-04-18T08:09:02.422Z,1003.00
2023-04-18T08:10:02.427Z,1004.00
2023-04-18T08:11:02.441Z,1006.00
2023-04-18T08:12:02.417Z,1020.00
2023-04-18T08:13:02.897Z,1034.00
2023-04-18T08:14:02.442Z,1111.00
2023-04-18T08:15:02.440Z,1118.00
2023-04-18T08:16:02.506Z,1117.00
2023-04-18T08:17:04.415Z,1220.00
2023-04-18T08:18:02.524Z,1370.00
2023-04-18T08:19:02.459Z,1386.00
2023-04-18T08:20:02.468Z,1404.00
2023-04-18T08:21:02.861Z,1514.00
2023-04-18T08:22:02.476Z,1512.00
2023-04-18T08:23:08.581Z,1523.00
2023-04-18T08:24:02.479Z,1514.00
2023-04-18T08:25:05.386Z,1525.00
2023-04-18T08:26:02.486Z,1456.00
2023-04-18T08:27:03.398Z,1462.00
2023-04-18T08:28:04.531Z,1466.00
2023-04-18T08:29:02.564Z,1413.00
2023-04-18T08:30:02.500Z,1336.00
2023-04-18T08:31:04.413Z,1308.00
2023-04-18T08:32:02.593Z,1315.00
2023-04-18T08:33:02.558Z,1308.00
2023-04-18T08:34:04.499Z,1306.00
2023-04-18T08:35:02.818Z,1279.00
2023-04-18T08:36:02.830Z,1277.00
2023-04-18T08:37:02.873Z,1260.00
2023-04-18T08:38:02.931Z,1192.00
2023-04-18T08:39:02.940Z,1187.00
2023-04-18T08:40:02.951Z,1148.00
2023-04-18T08:41:03.030Z,1130.00
2023-04-18T08:42:03.049Z,1117.00
2023-04-18T08:43:06.419Z,1116.00
2023-04-18T08:44:03.069Z,1118.00
2023-04-18T08:45:03.062Z,1121.00
2023-04-18T08:46:03.063Z,1120.00
2023-04-18T08:47:04.913Z,1117.00
2023-04-18T08:48:03.191Z,1116.00
2023-04-18T08:49:03.054Z,1109.00
2023-04-18T08:50:03.063Z,1106.00
2023-04-18T08:51:03.069Z,1103.00
2023-04-18T08:52:03.076Z,1104.00
2023-04-18T08:53:03.999Z,1100.00
2023-04-18T08:54:03.064Z,1093.00
2023-04-18T08:55:03.079Z,1092.00
2023-04-18T08:56:05.971Z,1095.00
2023-04-18T08:57:05.968Z,1094.00
2023-04-18T08:58:03.116Z,1097.00
2023-04-18T08:59:03.120Z,1100.00
2023-04-18T09:00:03.091Z,1100.00
2023-04-18T09:01:03.266Z,1105.00
2023-04-18T09:02:03.163Z,1106.00
2023-04-18T09:03:03.298Z,1103.00
2023-04-18T09:04:03.193Z,1102.00
2023-04-18T09:05:09.111Z,1103.00
2023-04-18T09:06:03.176Z,1101.00
2023-04-18T09:07:03.109Z,1105.00
2023-04-18T09:08:05.887Z,1106.00
2023-04-18T09:09:03.264Z,1105.00
2023-04-18T09:10:03.122Z,1104.00
2023-04-18T09:11:03.139Z,1106.00
2023-04-18T09:12:03.194Z,1109.00
2023-04-18T09:13:03.407Z,1104.00
2023-04-18T09:14:03.909Z,1100.00
2023-04-18T09:15:03.400Z,1098.00
2023-04-18T09:16:03.155Z,1099.00
2023-04-18T09:17:03.197Z,1174.00
2023-04-18T09:18:03.471Z,1194.00
2023-04-18T09:19:04.225Z,1186.00
2023-04-18T09:20:03.194Z,1184.00
2023-04-18T09:21:03.899Z,1190.00
2023-04-18T09:22:03.850Z,1257.00
2023-04-18T09:23:03.893Z,1321.00
2023-04-18T09:24:03.223Z,1338.00
2023-04-18T09:25:03.359Z,1328.00
2023-04-18T09:26:03.263Z,1330.00
2023-04-18T09:27:03.284Z,1323.00
2023-04-18T09:28:03.265Z,1322.00
2023-04-18T09:29:03.305Z,1318.00
2023-04-18T09:30:03.341Z,1248.00
2023-04-18T09:31:03.336Z,1240.00
2023-04-18T09:32:03.315Z,1229.00
2023-04-18T09:33:03.311Z,1211.00
2023-04-18T09:34:03.353Z,1186.00
2023-04-18T09:35:04.571Z,1172.00
2023-04-18T09:36:03.492Z,1063.00
2023-04-18T09:37:03.593Z,912.00
2023-04-18T09:38:03.562Z,847.00
2023-04-18T09:39:03.563Z,828.00
2023-04-18T09:40:03.559Z,818.00
2023-04-18T09:41:03.688Z,728.00
2023-04-18T09:42:03.567Z,728.00
2023-04-18T09:43:03.564Z,726.00
2023-04-18T09:44:03.586Z,719.00
2023-04-18T09:45:03.620Z,719.00
2023-04-18T09:46:07.420Z,719.00
2023-04-18T09:47:03.610Z,722.00
2023-04-18T09:48:03.731Z,724.00
2023-04-18T09:49:03.642Z,712.00
2023-04-18T09:50:03.961Z,722.00
2023-04-18T09:51:04.420Z,730.00
2023-04-18T09:52:03.658Z,750.00
2023-04-18T09:53:03.659Z,757.00
2023-04-18T09:54:03.662Z,821.00
2023-04-18T09:55:03.682Z,825.00
2023-04-18T09:56:04.690Z,831.00
2023-04-18T09:57:03.874Z,838.00
2023-04-18T09:58:03.820Z,845.00
2023-04-18T09:59:03.672Z,849.00
2023-04-18T10:00:03.694Z,856.00
2023-04-18T10:01:03.760Z,864.00
2023-04-18T10:02:04.496Z,870.00
2023-04-18T10:03:03.744Z,879.00
2023-04-18T10:04:03.766Z,891.00
2023-04-18T10:05:03.808Z,897.00
2023-04-18T10:06:04.454Z,896.00
2023-04-18T10:07:03.895Z,898.00
2023-04-18T10:08:03.955Z,900.00
2023-04-18T10:09:04.012Z,907.00
2023-04-18T10:10:04.097Z,914.00
2023-04-18T10:11:04.079Z,969.00
2023-04-18T10:12:04.088Z,982.00
2023-04-18T10:13:04.162Z,975.00
2023-04-18T10:14:04.854Z,1016.00
2023-04-18T10:15:04.147Z,1044.00
2023-04-18T10:16:04.145Z,1100.00
2023-04-18T10:17:04.912Z,1116.00
2023-04-18T10:18:06.533Z,1125.00
2023-04-18T10:19:04.157Z,1123.00
2023-04-18T10:20:04.190Z,1130.00
2023-04-18T10:21:04.294Z,1136.00
2023-04-18T10:22:04.329Z,1113.00
2023-04-18T10:23:04.394Z,1073.00
2023-04-18T10:24:05.387Z,1069.00
2023-04-18T10:25:04.494Z,1066.00
2023-04-18T10:26:06.462Z,1062.00
2023-04-18T10:27:04.400Z,1058.00
2023-04-18T10:28:04.416Z,1057.00
2023-04-18T10:29:04.415Z,1055.00
2023-04-18T10:30:04.421Z,1057.00
2023-04-18T10:31:04.966Z,1058.00
2023-04-18T10:32:04.445Z,1060.00
2023-04-18T10:34:05.905Z,1059.00
2023-04-18T10:35:05.593Z,1058.00
2023-04-18T10:36:04.579Z,1060.00
2023-04-18T10:37:04.585Z,1057.00
2023-04-18T10:38:04.589Z,1057.00
2023-04-18T10:39:04.590Z,1057.00
2023-04-18T10:40:04.577Z,1060.00
2023-04-18T10:41:04.579Z,1063.00
2023-04-18T10:42:04.593Z,1066.00
2023-04-18T10:43:04.624Z,1069.00
2023-04-18T10:44:05.364Z,1065.00
2023-04-18T10:45:04.769Z,1061.00
2023-04-18T10:46:04.855Z,1061.00
2023-04-18T10:47:04.947Z,1060.00
2023-04-18T10:48:05.037Z,1053.00
2023-04-18T10:49:05.083Z,1044.00
2023-04-18T10:50:06.804Z,1044.00
2023-04-18T10:51:05.206Z,1049.00
2023-04-18T10:52:05.264Z,1053.00
2023-04-18T10:53:05.332Z,1046.00
2023-04-18T10:54:05.370Z,1040.00
2023-04-18T10:55:05.462Z,1043.00
2023-04-18T10:56:05.490Z,1043.00
2023-04-18T10:57:05.549Z,1046.00
2023-04-18T10:58:05.609Z,1036.00
2023-04-18T10:59:05.631Z,1043.00
2023-04-18T11:00:05.651Z,1061.00
2023-04-18T11:01:06.022Z,1061.00
2023-04-18T11:02:05.794Z,1087.00
2023-04-18T11:03:05.977Z,1100.00
2023-04-18T11:04:06.005Z,1090.00
2023-04-18T11:05:05.848Z,1146.00
2023-04-18T11:06:05.958Z,1216.00
2023-04-18T11:07:05.925Z,1165.00
2023-04-18T11:08:05.903Z,1158.00
2023-04-18T11:09:05.908Z,1123.00
2023-04-18T11:10:05.911Z,1109.00
2023-04-18T11:11:05.944Z,1103.00
2023-04-18T11:12:05.997Z,1101.00
2023-04-18T11:13:06.088Z,1098.00
2023-04-18T11:14:06.133Z,1095.00
2023-04-18T11:15:06.195Z,1090.00
2023-04-18T11:16:06.298Z,1086.00
2023-04-18T11:17:06.336Z,1090.00
2023-04-18T11:18:06.445Z,1090.00
2023-04-18T11:19:06.480Z,1088.00
2023-04-18T11:20:06.559Z,1088.00
2023-04-18T11:21:06.627Z,1158.00
2023-04-18T11:22:06.675Z,1185.00
2023-04-18T11:23:06.773Z,1297.00
2023-04-18T11:24:06.816Z,1340.00
2023-04-18T11:25:06.860Z,1454.00
2023-04-18T11:26:06.950Z,1465.00
2023-04-18T11:27:06.990Z,1455.00
2023-04-18T11:28:07.045Z,1555.00
2023-04-18T11:29:07.127Z,1540.00
2023-04-18T11:30:07.152Z,1485.00
2023-04-18T11:31:07.213Z,1519.00
2023-04-18T11:32:07.347Z,1431.00
2023-04-18T11:33:07.726Z,1395.00
2023-04-18T11:34:07.443Z,1408.00
2023-04-18T11:35:07.488Z,1387.00
2023-04-18T11:36:07.513Z,1447.00
2023-04-18T11:37:07.591Z,1416.00
2023-04-18T11:38:07.650Z,1590.00
2023-04-18T11:39:07.680Z,1500.00
2023-04-18T11:40:07.725Z,1540.00
2023-04-18T11:41:07.842Z,1330.00
2023-04-18T11:42:07.856Z,1282.00
2023-04-18T11:43:07.921Z,1237.00
2023-04-18T11:44:07.998Z,1168.00
2023-04-18T11:45:08.046Z,1150.00
2023-04-18T11:46:08.159Z,1145.00
2023-04-18T11:47:08.185Z,1154.00
2023-04-18T11:48:08.287Z,1162.00
2023-04-18T11:49:08.467Z,1169.00
2023-04-18T11:50:08.376Z,1236.00
2023-04-18T11:51:08.441Z,1174.00
2023-04-18T11:52:08.520Z,1135.00
2023-04-18T11:53:08.612Z,1140.00
2023-04-18T11:54:08.631Z,1140.00
2023-04-18T11:55:08.696Z,1178.00
2023-04-18T11:56:08.769Z,1179.00
2023-04-18T11:57:08.833Z,1179.00
2023-04-18T11:58:08.902Z,1178.00
2023-04-18T11:59:08.994Z,1179.00
2023-04-18T12:00:09.033Z,1178.00
2023-04-18T12:01:09.091Z,1182.00
2023-04-18T12:02:16.025Z,1180.00
2023-04-18T12:03:13.342Z,1176.00
2023-04-18T12:04:09.386Z,1178.00
2023-04-18T12:05:09.610Z,1182.00
2023-04-18T12:06:09.313Z,1181.00
2023-04-18T12:07:09.162Z,1172.00
2023-04-18T12:08:09.177Z,1162.00
2023-04-18T12:09:09.165Z,1153.00
2023-04-18T12:10:09.159Z,1145.00
2023-04-18T12:11:09.167Z,1144.00
2023-04-18T12:12:09.166Z,1134.00
2023-04-18T12:13:09.183Z,1132.00
2023-04-18T12:14:09.175Z,1130.00
2023-04-18T12:15:09.249Z,1127.00
2023-04-18T12:16:09.342Z,1127.00
2023-04-18T12:17:09.328Z,1129.00
2023-04-18T12:18:09.446Z,1131.00
2023-04-18T12:19:09.471Z,1133.00
2023-04-18T12:20:09.529Z,1138.00
2023-04-18T12:21:09.698Z,1139.00